createdAt,value
2022-12-01T00:04:20.604Z,2.35
2022-12-01T00:09:43.451Z,2.30
2022-12-01T00:14:54.658Z,2.29
2022-12-01T00:19:57.383Z,2.33
2022-12-01T00:24:59.873Z,2.35
2022-12-01T00:30:02.359Z,2.36
2022-12-01T00:35:05.774Z,2.32
2022-12-01T00:40:09.804Z,2.32
2022-12-01T00:45:12.339Z,2.33
2022-12-01T00:50:14.828Z,2.33
2022-12-01T00:55:17.280Z,2.31
2022-12-01T01:00:20.237Z,2.30
2022-12-01T01:05:23.241Z,2.28
2022-12-01T01:10:25.750Z,2.27
2022-12-01T01:15:28.242Z,2.28
2022-12-01T01:20:31.334Z,2.30
2022-12-01T01:25:34.020Z,2.26
2022-12-01T01:30:39.624Z,2.18
2022-12-01T01:35:42.107Z,2.20
2022-12-01T01:40:47.156Z,2.21
2022-12-01T01:45:49.681Z,2.21
2022-12-01T01:50:52.377Z,2.18
2022-12-01T01:55:54.943Z,2.13
2022-12-01T02:00:57.523Z,2.13
2022-12-01T02:06:04.644Z,2.16
2022-12-01T02:11:10.537Z,2.17
2022-12-01T02:16:23.113Z,2.17
2022-12-01T02:21:30.938Z,2.14
2022-12-01T02:26:43.622Z,2.12
2022-12-01T02:31:53.640Z,2.11
2022-12-01T02:37:06.184Z,2.13
2022-12-01T02:42:40.172Z,2.17
2022-12-01T02:47:45.118Z,2.17
2022-12-01T02:52:47.779Z,2.14
2022-12-01T02:57:50.265Z,2.13
2022-12-01T03:03:01.454Z,2.11
2022-12-01T03:08:16.132Z,2.14
2022-12-01T03:13:30.471Z,2.21
2022-12-01T03:18:38.649Z,2.16
2022-12-01T03:23:48.066Z,2.12
2022-12-01T03:28:57.469Z,2.08
2022-12-01T03:34:07.630Z,2.05
2022-12-01T03:39:16.921Z,2.03
2022-12-01T03:44:26.211Z,2.09
2022-12-01T03:49:29.134Z,2.14
2022-12-01T03:54:47.257Z,2.16
2022-12-01T03:59:50.301Z,2.13
2022-12-01T04:04:53.746Z,2.06
2022-12-01T04:09:56.209Z,2.00
2022-12-01T04:15:02.060Z,1.98
2022-12-01T04:20:06.853Z,1.93
2022-12-01T04:25:10.459Z,1.90
2022-12-01T04:30:13.213Z,1.93
2022-12-01T04:35:18.134Z,1.99
2022-12-01T04:40:21.553Z,2.00
2022-12-01T04:45:24.079Z,1.99
2022-12-01T04:50:26.556Z,1.94
2022-12-01T04:55:29.004Z,1.96
2022-12-01T05:00:31.866Z,1.94
2022-12-01T05:05:34.397Z,1.90
2022-12-01T05:10:38.272Z,1.90
2022-12-01T05:15:40.760Z,1.92
2022-12-01T05:20:46.237Z,1.88
2022-12-01T05:25:48.716Z,1.88
2022-12-01T05:30:51.366Z,1.88
2022-12-01T05:35:54.771Z,1.90
2022-12-01T05:40:57.390Z,1.94
2022-12-01T05:46:00.048Z,1.95
2022-12-01T05:51:08.956Z,1.97
2022-12-01T05:56:14.032Z,1.96
2022-12-01T06:01:16.538Z,1.96
2022-12-01T06:06:19.272Z,1.99
2022-12-01T06:11:21.827Z,2.04
2022-12-01T06:16:24.371Z,2.10
2022-12-01T06:21:26.918Z,2.15
2022-12-01T06:26:29.480Z,2.19
2022-12-01T06:31:32.033Z,2.23
2022-12-01T06:36:34.863Z,2.26
2022-12-01T06:41:38.462Z,2.26
2022-12-01T06:46:41.026Z,2.27
2022-12-01T06:51:43.482Z,2.31
2022-12-01T06:56:46.025Z,2.37
2022-12-01T07:01:49.020Z,2.42
2022-12-01T07:06:51.593Z,2.44
2022-12-01T07:11:54.067Z,2.47
2022-12-01T07:16:56.597Z,2.47
2022-12-01T07:21:59.135Z,2.54
2022-12-01T07:27:01.617Z,2.58
2022-12-01T07:32:04.328Z,2.60
2022-12-01T07:37:06.926Z,2.58
2022-12-01T07:42:09.454Z,2.53
2022-12-01T07:47:11.965Z,2.56
2022-12-01T07:52:14.510Z,2.56
2022-12-01T07:57:18.124Z,2.57
2022-12-01T08:02:20.674Z,2.59
2022-12-01T08:07:26.077Z,2.66
2022-12-01T08:12:32.116Z,2.69
2022-12-01T08:17:34.601Z,2.71
2022-12-01T08:22:37.086Z,2.78
2022-12-01T08:27:39.694Z,2.80
2022-12-01T08:32:42.181Z,2.85
2022-12-01T08:37:44.681Z,2.95
2022-12-01T08:42:47.412Z,3.01
2022-12-01T08:47:50.263Z,3.04
2022-12-01T08:52:52.928Z,3.08
2022-12-01T08:57:55.394Z,3.10
2022-12-01T09:02:58.111Z,3.04
2022-12-01T09:08:03.694Z,3.04
2022-12-01T09:13:06.412Z,3.11
2022-12-01T09:18:09.006Z,3.16
2022-12-01T09:23:11.639Z,3.24
2022-12-01T09:28:14.781Z,3.34
2022-12-01T09:33:17.416Z,3.46
2022-12-01T09:38:19.858Z,3.57
2022-12-01T09:43:40.467Z,3.70
2022-12-01T09:48:46.531Z,3.78
2022-12-01T09:53:52.746Z,3.77
2022-12-01T09:58:59.208Z,3.79
2022-12-01T10:04:24.576Z,3.84
2022-12-01T10:09:30.951Z,3.86
2022-12-01T10:14:36.250Z,3.94
2022-12-01T10:19:41.425Z,3.96
2022-12-01T10:24:53.041Z,3.90
2022-12-01T10:30:00.477Z,3.92
2022-12-01T10:35:03.188Z,3.96
2022-12-01T10:40:11.969Z,3.96
2022-12-01T10:45:27.070Z,3.97
2022-12-01T10:50:29.905Z,4.01
2022-12-01T10:55:40.834Z,4.03
2022-12-01T11:00:59.973Z,4.06
2022-12-01T11:06:05.704Z,4.12
2022-12-01T11:11:14.057Z,4.19
2022-12-01T11:16:22.484Z,4.19
2022-12-01T11:21:28.324Z,4.10
2022-12-01T11:26:32.847Z,4.08
2022-12-01T11:31:40.984Z,4.06
2022-12-01T11:36:47.337Z,3.96
2022-12-01T11:41:54.499Z,3.83
2022-12-01T11:47:21.583Z,3.78
2022-12-01T11:52:27.900Z,3.78
2022-12-01T11:58:12.622Z,3.73
2022-12-01T12:03:06.157Z,3.70
2022-12-01T12:08:14.531Z,3.64
2022-12-01T12:13:18.002Z,3.61
2022-12-01T12:18:24.394Z,3.58
2022-12-01T12:23:28.884Z,3.56
2022-12-01T12:28:40.804Z,3.54
2022-12-01T12:33:57.162Z,3.51
2022-12-01T12:39:13.591Z,3.52
2022-12-01T12:44:24.931Z,3.51
2022-12-01T12:49:33.925Z,3.47
2022-12-01T12:54:47.766Z,3.45
2022-12-01T12:59:58.175Z,3.42
2022-12-01T13:05:10.251Z,3.34
2022-12-01T13:10:24.330Z,3.27
2022-12-01T13:15:28.768Z,3.23
2022-12-01T13:20:37.709Z,3.17
2022-12-01T13:25:41.410Z,3.10
2022-12-01T13:31:00.565Z,3.03
2022-12-01T13:36:45.119Z,2.99
2022-12-01T13:41:34.881Z,3.00
2022-12-01T13:46:42.390Z,2.99
2022-12-01T13:52:08.099Z,2.99
2022-12-01T13:57:29.696Z,2.99
2022-12-01T14:02:35.476Z,2.99
2022-12-01T14:07:38.775Z,2.99
2022-12-01T14:12:45.530Z,2.99
2022-12-01T14:17:57.769Z,2.97
2022-12-01T14:23:11.099Z,2.97
2022-12-01T14:28:17.393Z,2.93
2022-12-01T14:33:25.859Z,2.91
2022-12-01T14:38:28.898Z,2.91
2022-12-01T14:43:51.882Z,2.92
2022-12-01T14:48:55.311Z,2.89
2022-12-01T14:54:00.415Z,2.81
2022-12-01T14:59:15.658Z,2.70
2022-12-01T15:04:18.821Z,2.63
2022-12-01T15:09:39.015Z,2.61
2022-12-01T15:14:47.403Z,2.60
2022-12-01T15:19:50.423Z,2.54
2022-12-01T15:24:53.323Z,2.47
2022-12-01T15:29:58.507Z,2.46
2022-12-01T15:35:03.426Z,2.51
2022-12-01T15:40:59.670Z,2.54
2022-12-01T15:45:43.286Z,2.56
2022-12-01T15:51:01.231Z,2.49
2022-12-01T15:56:08.418Z,2.43
2022-12-01T16:01:15.437Z,2.44
2022-12-01T16:06:19.337Z,2.44
2022-12-01T16:11:23.608Z,2.38
2022-12-01T16:16:32.102Z,2.30
2022-12-01T16:21:42.935Z,2.28
2022-12-01T16:27:07.860Z,2.21
2022-12-01T16:32:20.644Z,2.18
2022-12-01T16:37:24.117Z,2.11
2022-12-01T16:42:27.665Z,2.06
2022-12-01T16:47:31.990Z,2.01
2022-12-01T16:52:44.076Z,1.96
2022-12-01T16:57:47.069Z,1.96
2022-12-01T17:02:50.348Z,2.00
2022-12-01T17:07:53.129Z,1.97
2022-12-01T17:12:55.796Z,1.95
2022-12-01T17:17:58.301Z,1.94
2022-12-01T17:23:00.938Z,1.94
2022-12-01T17:28:03.467Z,1.91
2022-12-01T17:33:05.951Z,1.88
2022-12-01T17:38:08.509Z,1.86
2022-12-01T17:43:10.983Z,1.84
2022-12-01T17:48:13.468Z,1.83
2022-12-01T17:53:15.987Z,1.82
2022-12-01T17:58:21.334Z,1.79
2022-12-01T18:03:23.912Z,1.81
2022-12-01T18:08:29.266Z,1.86
2022-12-01T18:13:31.738Z,1.86
2022-12-01T18:18:36.014Z,1.84
2022-12-01T18:23:38.962Z,1.85
2022-12-01T18:28:41.530Z,1.83
2022-12-01T18:33:45.166Z,1.84
2022-12-01T18:38:48.395Z,1.91
2022-12-01T18:43:51.486Z,1.96
2022-12-01T18:49:00.793Z,1.96
2022-12-01T18:54:05.443Z,1.88
2022-12-01T18:59:11.001Z,1.81
2022-12-01T19:04:14.641Z,1.75
2022-12-01T19:09:17.394Z,1.67
2022-12-01T19:14:19.953Z,1.61
2022-12-01T19:19:23.328Z,1.56
2022-12-01T19:24:25.834Z,1.50
2022-12-01T19:29:28.349Z,1.44
2022-12-01T19:34:30.832Z,1.40
2022-12-01T19:39:33.312Z,1.38
2022-12-01T19:44:35.855Z,1.34
2022-12-01T19:49:38.396Z,1.27
2022-12-01T19:54:40.967Z,1.23
2022-12-01T19:59:43.548Z,1.19
2022-12-01T20:04:46.641Z,1.16
2022-12-01T20:09:50.194Z,1.18
2022-12-01T20:14:53.389Z,1.14
2022-12-01T20:19:55.962Z,1.09
2022-12-01T20:24:58.858Z,1.02
2022-12-01T20:30:01.360Z,0.98
2022-12-01T20:35:04.665Z,0.97
2022-12-01T20:40:07.684Z,0.96
2022-12-01T20:45:10.161Z,0.94
2022-12-01T20:50:12.692Z,0.94
2022-12-01T20:55:15.255Z,0.91
2022-12-01T21:00:18.168Z,0.89
2022-12-01T21:05:20.708Z,0.90
2022-12-01T21:10:23.281Z,0.90
2022-12-01T21:15:28.971Z,0.91
2022-12-01T21:20:39.137Z,0.93
2022-12-01T21:25:42.965Z,0.88
2022-12-01T21:30:47.432Z,0.88
2022-12-01T21:35:51.840Z,0.86
2022-12-01T21:40:54.405Z,0.83
2022-12-01T21:46:01.963Z,0.82
2022-12-01T21:51:25.253Z,0.78
2022-12-01T21:56:29.045Z,0.70
2022-12-01T22:01:32.770Z,0.62
2022-12-01T22:06:39.995Z,0.56
2022-12-01T22:11:44.734Z,0.53
2022-12-01T22:16:53.220Z,0.55
2022-12-01T22:22:00.470Z,0.58
2022-12-01T22:27:14.316Z,0.60
2022-12-01T22:32:16.729Z,0.60
2022-12-01T22:37:23.828Z,0.54
2022-12-01T22:42:34.903Z,0.48
2022-12-01T22:47:38.024Z,0.47
2022-12-01T22:52:40.508Z,0.48
2022-12-01T22:57:42.981Z,0.45
2022-12-01T23:02:48.362Z,0.36
2022-12-01T23:07:52.321Z,0.27
2022-12-01T23:12:57.987Z,0.17
2022-12-01T23:18:23.497Z,0.12
2022-12-01T23:23:30.757Z,0.06
2022-12-01T23:28:36.396Z,0.05
2022-12-01T23:33:38.853Z,0.05
2022-12-01T23:38:43.816Z,0.06
2022-12-01T23:43:46.574Z,0.08
2022-12-01T23:49:01.277Z,0.03
2022-12-01T23:54:12.623Z,-0.06
2022-12-01T23:59:15.257Z,-0.14
